Time;durP1;ratioP1;P1;durP2;ratioP2;P2;SDS_P1;SDS_P2;PMS_P1;PMS_P2;Temp;Humidity;BMP_temperature;BMP_pressure;BME280_temperature;BME280_humidity;BME280_pressure;Samples;Min_cycle;Max_cycle;Signal;HPM_P1;HPM_P2
2022/06/10 00:00:17;;;;;;;1999.90;999.90;;;18.40;99.90;;;;;;5025312;28;20198;-68
2022/06/10 00:02:43;;;;;;;1999.90;999.90;;;18.30;99.90;;;;;;5023178;28;20203;-68
2022/06/10 00:05:11;;;;;;;1999.90;999.90;;;18.30;99.90;;;;;;5007024;28;20206;-68
2022/06/10 00:07:37;;;;;;;1999.90;999.90;;;18.30;99.90;;;;;;5022792;28;20625;-68
2022/06/10 00:10:03;;;;;;;1999.90;999.90;;;18.30;99.90;;;;;;5014460;28;20272;-67
2022/06/10 00:12:29;;;;;;;1999.90;999.90;;;18.20;99.90;;;;;;5017902;28;20242;-67
2022/06/10 00:14:54;;;;;;;1999.90;999.90;;;18.30;99.90;;;;;;5028155;28;20633;-67
2022/06/10 00:17:20;;;;;;;1999.90;999.90;;;18.30;99.90;;;;;;5031567;28;20285;-67
2022/06/10 00:19:46;;;;;;;1999.90;999.90;;;18.30;99.90;;;;;;5029245;28;20218;-67
2022/06/10 00:22:11;;;;;;;1999.90;999.90;;;18.10;99.90;;;;;;5030491;28;20198;-68
2022/06/10 00:24:40;;;;;;;1999.90;999.90;;;18.20;99.90;;;;;;5028008;28;20232;-67
2022/06/10 00:27:06;;;;;;;1999.90;999.90;;;18.10;99.90;;;;;;5027289;28;20200;-68
2022/06/10 00:29:32;;;;;;;1999.90;999.90;;;18.00;99.90;;;;;;5015674;28;20241;-68
2022/06/10 00:31:58;;;;;;;1999.90;999.90;;;18.10;99.90;;;;;;5030506;28;20184;-68
2022/06/10 00:34:24;;;;;;;1999.90;999.90;;;18.10;99.90;;;;;;5030752;28;20192;-68
2022/06/10 00:36:51;;;;;;;1999.90;999.90;;;18.20;99.90;;;;;;5030959;28;20194;-67
2022/06/10 00:39:17;;;;;;;1999.90;999.90;;;18.10;99.90;;;;;;5031499;28;20269;-67
2022/06/10 00:41:44;;;;;;;1999.90;999.90;;;18.30;99.90;;;;;;5039938;28;20587;-67
2022/06/10 00:44:30;;;;;;;1999.90;999.90;;;18.30;99.90;;;;;;5025036;28;20274;-67
2022/06/10 00:46:56;;;;;;;1999.90;999.90;;;18.30;99.90;;;;;;5025264;28;20187;-67
2022/06/10 00:49:22;;;;;;;1999.90;999.90;;;18.20;99.90;;;;;;5030542;28;20187;-67
2022/06/10 00:51:51;;;;;;;1999.90;999.90;;;18.10;99.90;;;;;;5047220;28;20186;-67
2022/06/10 00:54:23;;;;;;;1999.90;999.90;;;18.20;99.90;;;;;;5030628;28;20328;-67
2022/06/10 00:57:13;;;;;;;1999.90;999.90;;;18.20;99.90;;;;;;5031078;28;20183;-67
2022/06/10 00:59:47;;;;;;;1999.90;999.90;;;18.20;99.90;;;;;;5026967;28;20659;-68
2022/06/10 01:02:16;;;;;;;1999.90;999.90;;;18.10;99.90;;;;;;5022609;28;20671;-67
2022/06/10 01:04:43;;;;;;;1999.90;999.90;;;18.10;99.90;;;;;;5018519;28;20183;-67
2022/06/10 01:07:11;;;;;;;1999.90;999.90;;;18.10;99.90;;;;;;5031668;28;20662;-67
2022/06/10 01:09:39;;;;;;;1999.90;999.90;;;18.20;99.90;;;;;;5021231;28;20184;-67
2022/06/10 01:12:29;;;;;;;1999.90;999.90;;;18.20;99.90;;;;;;5030815;28;20669;-67
2022/06/10 01:15:09;;;;;;;1999.90;999.90;;;18.20;99.90;;;;;;5031341;28;20198;-67
2022/06/10 01:17:48;;;;;;;1999.90;999.90;;;18.10;99.90;;;;;;5022766;28;20181;-67
2022/06/10 01:20:43;;;;;;;1999.90;999.90;;;18.00;99.90;;;;;;5017413;28;20262;-67
2022/06/10 01:23:33;;;;;;;1999.90;999.90;;;18.00;99.90;;;;;;5031397;28;20193;-67
2022/06/10 01:26:21;;;;;;;1999.90;999.90;;;18.00;99.90;;;;;;5022186;28;20174;-67
2022/06/10 01:28:46;;;;;;;1999.90;999.90;;;18.00;99.90;;;;;;5015138;28;20190;-68
2022/06/10 01:31:34;;;;;;;1999.90;999.90;;;18.10;99.90;;;;;;5029782;28;20643;-68
2022/06/10 01:34:13;;;;;;;1999.90;999.90;;;18.10;99.90;;;;;;5032167;28;20218;-67
2022/06/10 01:37:01;;;;;;;1999.90;999.90;;;18.20;99.90;;;;;;5030247;28;20191;-67
2022/06/10 01:40:00;;;;;;;1999.90;999.90;;;18.20;99.90;;;;;;5028184;28;20185;-67
2022/06/10 01:42:29;;;;;;;1999.90;999.90;;;18.10;99.90;;;;;;5047203;28;20658;-67
2022/06/10 01:45:07;;;;;;;1999.90;999.90;;;18.00;99.90;;;;;;5030644;28;20222;-67
2022/06/10 01:47:42;;;;;;;1999.90;999.90;;;18.10;99.90;;;;;;5032526;28;20201;-68
2022/06/10 01:50:30;;;;;;;1999.90;999.90;;;18.00;99.90;;;;;;5041704;28;20180;-67
2022/06/10 01:53:00;;;;;;;1999.90;999.90;;;18.10;99.90;;;;;;5024756;28;20571;-68
2022/06/10 01:55:35;;;;;;;1999.90;999.90;;;18.10;99.90;;;;;;5021464;28;20304;-67
2022/06/10 01:58:13;;;;;;;1999.90;999.90;;;18.30;99.90;;;;;;5030098;28;20592;-68
2022/06/10 02:00:46;;;;;;;1999.90;999.90;;;18.30;99.90;;;;;;5031304;28;20187;-68
2022/06/10 02:03:24;;;;;;;1999.90;999.90;;;18.30;99.90;;;;;;5047308;28;20195;-68
2022/06/10 02:05:56;;;;;;;1999.90;999.90;;;18.20;99.90;;;;;;5032643;28;20244;-68
2022/06/10 02:08:31;;;;;;;1999.90;999.90;;;18.30;99.90;;;;;;5029676;28;20650;-68
2022/06/10 02:11:15;;;;;;;1999.90;999.90;;;18.20;99.90;;;;;;5023248;28;20181;-68
2022/06/10 02:13:46;;;;;;;1999.90;999.90;;;18.20;99.90;;;;;;5026388;28;20758;-68
2022/06/10 02:16:15;;;;;;;1999.90;999.90;;;18.10;99.90;;;;;;5030633;28;20277;-68
2022/06/10 02:18:57;;;;;;;1999.90;999.90;;;18.10;99.90;;;;;;5026776;28;20210;-68
2022/06/10 02:21:38;;;;;;;1999.90;999.90;;;18.10;99.90;;;;;;5025148;28;20198;-68
2022/06/10 02:24:25;;;;;;;1999.90;999.90;;;18.10;99.90;;;;;;5032072;28;20289;-68
2022/06/10 02:26:54;;;;;;;1999.90;999.90;;;18.20;99.90;;;;;;5015819;28;20191;-68
2022/06/10 02:29:30;;;;;;;1999.90;999.90;;;18.30;99.90;;;;;;5017491;28;20207;-68
2022/06/10 02:31:59;;;;;;;1999.90;999.90;;;18.30;99.90;;;;;;5014496;28;20269;-68
2022/06/10 02:34:27;;;;;;;1999.90;999.90;;;18.10;99.90;;;;;;5016807;28;20550;-68
2022/06/10 02:36:58;;;;;;;1999.90;999.90;;;18.20;99.90;;;;;;5030568;28;20189;-68
2022/06/10 02:39:36;;;;;;;1999.90;999.90;;;18.20;99.90;;;;;;5038994;28;20517;-68
2022/06/10 02:42:17;;;;;;;1999.90;999.90;;;18.20;99.90;;;;;;5015656;28;20637;-68
2022/06/10 02:45:08;;;;;;;1999.90;999.90;;;18.20;99.90;;;;;;5031446;28;20186;-68
2022/06/10 02:47:47;;;;;;;1999.90;999.90;;;18.20;99.90;;;;;;5023462;28;20183;-68
2022/06/10 02:50:15;;;;;;;1999.90;999.90;;;18.20;99.90;;;;;;5029551;28;20655;-68
2022/06/10 02:52:41;;;;;;;1999.90;999.90;;;18.30;99.90;;;;;;5030855;28;20207;-68
2022/06/10 02:55:14;;;;;;;1999.90;999.90;;;18.10;99.90;;;;;;5029988;28;20187;-68
2022/06/10 03:03:53;;;;;;;1999.90;999.90;;;18.10;99.90;;;;;;5032632;28;20713;-67
2022/06/10 03:06:38;;;;;;;1999.90;999.90;;;18.10;99.90;;;;;;5030205;28;20715;-67
2022/06/10 03:09:16;;;;;;;607.58;420.23;;;18.10;99.90;;;;;;5035097;28;20186;-67
2022/06/10 03:12:14;;;;;;;1999.90;999.90;;;18.10;99.90;;;;;;5021502;28;20218;-68
2022/06/10 03:14:57;;;;;;;1696.20;891.50;;;18.10;99.90;;;;;;5034803;28;20618;-68
2022/06/10 03:17:42;;;;;;;1707.30;899.38;;;18.00;99.90;;;;;;5036170;28;20184;-68
2022/06/10 03:20:28;;;;;;;1999.90;999.90;;;18.00;99.90;;;;;;5022235;28;20184;-68
2022/06/10 03:23:18;;;;;;;1999.90;999.90;;;17.90;99.90;;;;;;5024442;28;20211;-68
2022/06/10 03:25:51;;;;;;;787.20;553.38;;;17.90;99.90;;;;;;5016100;28;20180;-68
2022/06/10 03:28:49;;;;;;;1008.38;746.38;;;18.00;99.90;;;;;;5023609;28;20219;-68
2022/06/10 03:31:22;;;;;;;1999.90;999.90;;;18.10;99.90;;;;;;5025511;28;20204;-68
2022/06/10 03:33:59;;;;;;;825.60;601.45;;;18.20;99.90;;;;;;5031367;28;20301;-68
2022/06/10 03:36:26;;;;;;;1999.90;999.90;;;18.00;99.90;;;;;;5015933;28;20640;-68
2022/06/10 03:38:53;;;;;;;1999.90;999.90;;;18.00;99.90;;;;;;5025059;28;20183;-68
2022/06/10 03:41:53;;;;;;;755.28;533.83;;;18.10;99.90;;;;;;5030243;28;20252;-68
2022/06/10 03:44:20;;;;;;;1722.18;913.22;;;18.10;99.90;;;;;;5021065;28;20187;-68
2022/06/10 03:46:49;;;;;;;1454.63;831.58;;;18.20;99.90;;;;;;5026302;28;20214;-68
2022/06/10 03:49:20;;;;;;;1999.90;999.90;;;18.20;99.90;;;;;;5035006;28;20214;-68
2022/06/10 03:51:46;;;;;;;984.70;731.35;;;18.30;99.90;;;;;;5033696;28;20730;-68
2022/06/10 03:54:18;;;;;;;1464.78;842.35;;;18.40;99.90;;;;;;5021380;28;20309;-68
2022/06/10 03:56:45;;;;;;;984.42;724.22;;;18.50;99.90;;;;;;5034323;28;20237;-67
2022/06/10 03:59:11;;;;;;;1999.90;999.90;;;18.40;99.90;;;;;;5028376;28;20200;-68
2022/06/10 04:01:37;;;;;;;1999.90;999.90;;;18.40;99.90;;;;;;5023910;28;20195;-66
2022/06/10 04:04:03;;;;;;;1999.90;999.90;;;18.30;99.90;;;;;;5029204;28;20686;-69
2022/06/10 04:06:31;;;;;;;1999.90;999.90;;;18.10;99.90;;;;;;5020184;28;20264;-69
2022/06/10 04:08:57;;;;;;;1999.90;999.90;;;18.10;99.90;;;;;;5033960;28;20183;-69
2022/06/10 04:11:22;;;;;;;1999.90;999.90;;;18.10;99.90;;;;;;5035004;28;20210;-68
2022/06/10 04:13:48;;;;;;;1999.90;999.90;;;18.20;99.90;;;;;;5033787;28;20210;-68
2022/06/10 04:16:14;;;;;;;1999.90;999.90;;;18.10;99.90;;;;;;5014362;28;20191;-68
2022/06/10 04:18:39;;;;;;;1999.90;999.90;;;18.10;99.90;;;;;;5031528;28;20218;-68
2022/06/10 04:21:06;;;;;;;1999.90;999.90;;;18.10;99.90;;;;;;5032896;28;20256;-70
2022/06/10 04:23:32;;;;;;;1999.90;999.90;;;18.20;99.90;;;;;;5029626;28;20191;-68
2022/06/10 04:25:58;;;;;;;1999.90;999.90;;;18.30;99.90;;;;;;5022877;28;20549;-68
2022/06/10 04:28:24;;;;;;;1999.90;999.90;;;18.30;99.90;;;;;;5032494;28;20273;-69
2022/06/10 04:30:51;;;;;;;1999.90;999.90;;;18.30;99.90;;;;;;5030761;28;20198;-68
2022/06/10 04:33:20;;;;;;;1999.90;999.90;;;18.30;99.90;;;;;;5029006;28;20564;-68
2022/06/10 04:35:49;;;;;;;1999.90;999.90;;;18.40;99.90;;;;;;5032861;28;20191;-68
2022/06/10 04:38:17;;;;;;;1678.70;874.28;;;18.50;99.90;;;;;;5021990;28;20176;-68
2022/06/10 04:40:44;;;;;;;1999.90;999.90;;;18.40;99.90;;;;;;5027578;28;20650;-68
2022/06/10 04:43:10;;;;;;;1999.90;999.90;;;18.50;99.90;;;;;;5032318;28;20191;-68
2022/06/10 04:45:46;;;;;;;1999.90;999.90;;;18.30;99.90;;;;;;5033893;28;20182;-68
2022/06/10 04:48:12;;;;;;;1668.88;867.47;;;18.20;99.90;;;;;;5025593;28;20175;-68
2022/06/10 04:50:39;;;;;;;1999.90;999.90;;;18.30;99.90;;;;;;5018442;28;20521;-68
2022/06/10 04:53:05;;;;;;;1999.90;999.90;;;18.40;99.90;;;;;;5039328;28;20218;-68
2022/06/10 04:55:31;;;;;;;1999.90;999.90;;;18.40;99.90;;;;;;5031740;28;20194;-68
2022/06/10 04:57:56;;;;;;;1999.90;999.90;;;18.50;99.90;;;;;;5033911;28;20189;-68
2022/06/10 05:00:32;;;;;;;1999.90;999.90;;;18.40;99.90;;;;;;5047603;28;20277;-68
2022/06/10 05:02:58;;;;;;;1999.90;999.90;;;18.40;99.90;;;;;;5032599;28;20190;-68
2022/06/10 05:05:25;;;;;;;1999.90;999.90;;;18.40;99.90;;;;;;5029680;28;20191;-68
2022/06/10 05:07:51;;;;;;;1455.55;834.13;;;18.40;99.90;;;;;;5023509;28;20192;-67
2022/06/10 05:10:18;;;;;;;1999.90;999.90;;;18.50;99.90;;;;;;5025093;28;20190;-67
2022/06/10 05:12:47;;;;;;;1999.90;999.90;;;18.50;99.90;;;;;;5031922;28;20206;-68
2022/06/10 05:15:14;;;;;;;1771.82;955.13;;;18.50;99.90;;;;;;5017019;28;20187;-68
2022/06/10 05:17:40;;;;;;;1999.90;999.90;;;18.40;99.90;;;;;;5023308;28;20262;-67
2022/06/10 05:20:07;;;;;;;1999.90;999.90;;;18.40;99.90;;;;;;5028467;28;20266;-68
2022/06/10 05:22:33;;;;;;;1434.22;817.80;;;18.30;99.90;;;;;;5031924;28;20192;-68
2022/06/10 05:24:58;;;;;;;1999.90;999.90;;;18.40;99.90;;;;;;5031043;28;20186;-68
2022/06/10 05:27:24;;;;;;;1999.90;999.90;;;18.40;99.90;;;;;;5024378;28;20663;-68
2022/06/10 05:29:50;;;;;;;911.78;676.60;;;18.40;99.90;;;;;;5020922;28;20261;-68
2022/06/10 05:32:16;;;;;;;1747.15;933.88;;;18.50;99.90;;;;;;5027571;28;20329;-67
2022/06/10 05:34:45;;;;;;;1999.90;999.90;;;18.60;99.90;;;;;;5021332;28;20612;-67
2022/06/10 05:37:23;;;;;;;1999.90;999.90;;;18.70;99.90;;;;;;5031907;28;20273;-67
2022/06/10 05:39:49;;;;;;;1760.25;946.53;;;18.60;99.90;;;;;;5023492;28;20182;-67
2022/06/10 05:42:15;;;;;;;1999.90;999.90;;;18.60;99.90;;;;;;5031021;28;20193;-68
2022/06/10 05:44:46;;;;;;;1999.90;934.05;;;18.70;99.90;;;;;;5031233;28;20236;-67
2022/06/10 05:47:16;;;;;;;1999.90;999.90;;;18.60;99.90;;;;;;5046119;28;20703;-68
2022/06/10 05:49:44;;;;;;;1999.90;999.90;;;18.60;99.90;;;;;;5029210;28;20667;-68
2022/06/10 05:52:12;;;;;;;1999.90;999.90;;;18.70;99.90;;;;;;5016799;28;20636;-67
2022/06/10 05:54:40;;;;;;;1999.90;999.90;;;18.70;99.90;;;;;;5032308;28;20241;-68
2022/06/10 05:57:06;;;;;;;1577.78;866.38;;;18.70;99.90;;;;;;5027415;28;20582;-67
2022/06/10 05:59:33;;;;;;;1999.90;999.90;;;18.70;99.90;;;;;;5047073;28;20190;-67
2022/06/10 06:02:01;;;;;;;1999.90;999.90;;;18.80;99.90;;;;;;5011761;28;20207;-67
2022/06/10 06:04:27;;;;;;;1999.90;999.90;;;18.90;99.90;;;;;;5020908;28;20194;-67
2022/06/10 06:06:53;;;;;;;1999.90;999.90;;;19.00;99.90;;;;;;5012060;28;20229;-66
2022/06/10 06:09:20;;;;;;;1999.90;999.90;;;19.00;99.90;;;;;;5031926;28;20191;-67
2022/06/10 06:11:47;;;;;;;1999.90;999.90;;;19.00;99.90;;;;;;5021581;28;20270;-67
2022/06/10 06:14:18;;;;;;;1999.90;999.90;;;19.00;99.90;;;;;;5028162;28;20221;-67
2022/06/10 06:16:59;;;;;;;1999.90;999.90;;;19.00;99.90;;;;;;5019100;28;20176;-66
2022/06/10 06:19:26;;;;;;;1999.90;999.90;;;19.00;99.90;;;;;;5031505;28;20182;-67
2022/06/10 06:21:53;;;;;;;1999.90;999.90;;;19.20;99.90;;;;;;5031269;28;20731;-67
2022/06/10 06:24:18;;;;;;;1999.90;999.90;;;19.20;99.90;;;;;;5031241;28;20203;-67
2022/06/10 06:26:44;;;;;;;1999.90;999.90;;;19.20;99.90;;;;;;5028707;28;20604;-67
2022/06/10 06:29:10;;;;;;;1999.90;999.90;;;19.20;99.90;;;;;;5038063;28;20179;-67
2022/06/10 06:31:36;;;;;;;1999.90;999.90;;;19.20;99.90;;;;;;5026404;28;20187;-67
2022/06/10 06:34:02;;;;;;;1999.90;999.90;;;19.40;99.90;;;;;;5031276;28;20214;-67
2022/06/10 06:36:38;;;;;;;1999.90;999.90;;;19.40;99.90;;;;;;5020036;28;20322;-67
2022/06/10 06:39:05;;;;;;;1999.90;999.90;;;19.40;99.90;;;;;;5031953;28;20179;-68
2022/06/10 06:41:31;;;;;;;1999.90;999.90;;;19.40;99.90;;;;;;5036577;28;20179;-68
2022/06/10 06:43:56;;;;;;;1999.90;999.90;;;19.60;99.90;;;;;;5015847;28;20187;-68
2022/06/10 06:46:22;;;;;;;1999.90;999.90;;;19.60;99.90;;;;;;5047827;28;20191;-67
2022/06/10 06:48:48;;;;;;;1999.90;999.90;;;19.70;99.90;;;;;;5033704;28;20190;-67
2022/06/10 06:51:15;;;;;;;1999.90;999.90;;;19.80;99.90;;;;;;5036377;28;20183;-68
2022/06/10 06:53:41;;;;;;;1999.90;999.90;;;19.70;99.90;;;;;;5028919;28;20213;-68
2022/06/10 06:56:07;;;;;;;1999.90;999.90;;;19.70;99.90;;;;;;5032368;28;20199;-68
2022/06/10 06:58:36;;;;;;;1999.90;999.90;;;19.80;99.90;;;;;;5034936;28;20186;-68
2022/06/10 07:01:02;;;;;;;1999.90;999.90;;;19.80;99.90;;;;;;5015993;28;20597;-68
2022/06/10 07:03:27;;;;;;;1999.90;999.90;;;19.90;99.90;;;;;;5020473;28;20199;-68
2022/06/10 07:05:53;;;;;;;1999.90;999.90;;;20.10;99.90;;;;;;5033339;28;20261;-68
2022/06/10 07:08:19;;;;;;;1999.90;999.90;;;20.20;99.90;;;;;;5045449;28;20187;-68
2022/06/10 07:10:46;;;;;;;1999.90;999.90;;;20.30;99.90;;;;;;5030564;28;20187;-68
2022/06/10 07:13:13;;;;;;;1999.90;999.90;;;20.40;99.90;;;;;;5025238;28;20725;-67
2022/06/10 07:15:42;;;;;;;1999.90;999.90;;;20.40;99.90;;;;;;5033114;28;20194;-68
2022/06/10 07:18:08;;;;;;;1999.90;999.90;;;20.20;99.90;;;;;;5022258;28;20184;-67
2022/06/10 07:20:36;;;;;;;1999.90;999.90;;;20.20;99.90;;;;;;5014884;28;20240;-67
2022/06/10 07:23:03;;;;;;;1999.90;999.90;;;20.30;99.90;;;;;;5031526;28;20187;-68
2022/06/10 07:25:30;;;;;;;1999.90;999.90;;;20.30;99.90;;;;;;5030828;28;20191;-67
2022/06/10 07:27:56;;;;;;;1999.90;999.90;;;20.40;99.90;;;;;;5030889;28;20190;-66
2022/06/10 07:30:26;;;;;;;1999.90;999.90;;;20.40;99.90;;;;;;5029528;28;20274;-66
2022/06/10 07:32:52;;;;;;;1999.90;999.90;;;20.80;99.90;;;;;;5027625;28;20264;-67
2022/06/10 07:35:18;;;;;;;1999.90;999.90;;;20.90;99.90;;;;;;5009539;28;20594;-67
2022/06/10 07:37:45;;;;;;;1999.90;999.90;;;21.30;99.90;;;;;;5029411;28;20183;-70
2022/06/10 07:43:04;;;;;;;1999.90;999.90;;;21.30;99.90;;;;;;5026523;28;20221;-71
2022/06/10 07:45:31;;;;;;;1999.90;999.90;;;21.20;99.90;;;;;;5031105;28;20183;-72
2022/06/10 07:47:57;;;;;;;1999.90;999.90;;;21.10;99.90;;;;;;5027551;28;20206;-71
2022/06/10 07:50:23;;;;;;;1999.90;999.90;;;21.10;99.90;;;;;;5029842;28;20179;-71
2022/06/10 07:52:52;;;;;;;1999.90;999.90;;;20.80;99.90;;;;;;5040971;28;20260;-72
2022/06/10 07:55:19;;;;;;;1999.90;999.90;;;20.80;99.90;;;;;;5024371;28;20199;-72
2022/06/10 07:57:45;;;;;;;1999.90;999.90;;;21.10;99.90;;;;;;5027914;28;20206;-73
2022/06/10 08:00:13;;;;;;;1999.90;999.90;;;21.40;99.90;;;;;;5025622;28;20206;-74
2022/06/10 08:02:40;;;;;;;1999.90;999.90;;;21.50;99.90;;;;;;5020532;28;20289;-77
2022/06/10 08:05:10;;;;;;;1999.90;999.90;;;21.50;99.90;;;;;;5024490;28;20297;-69
2022/06/10 08:07:39;;;;;;;1999.90;999.90;;;21.80;99.90;;;;;;5028646;28;20214;-68
2022/06/10 08:10:14;;;;;;;1999.90;999.90;;;22.00;99.90;;;;;;5029478;28;20186;-69
2022/06/10 08:12:40;;;;;;;1999.90;999.90;;;22.10;99.90;;;;;;5031620;28;20217;-69
2022/06/10 08:15:06;;;;;;;1999.90;999.90;;;22.20;99.90;;;;;;5022250;28;20191;-70
2022/06/10 08:17:32;;;;;;;1999.90;999.90;;;22.60;99.90;;;;;;5048707;28;20194;-69
2022/06/10 08:19:57;;;;;;;1999.90;999.90;;;22.90;99.90;;;;;;5021158;28;20214;-71
2022/06/10 08:22:38;;;;;;;1999.90;999.90;;;23.10;99.90;;;;;;5030583;28;20659;-69
2022/06/10 08:25:08;;;;;;;1999.90;999.90;;;23.30;99.90;;;;;;5019710;28;20193;-69
2022/06/10 08:27:34;;;;;;;1999.90;999.90;;;23.40;99.90;;;;;;5044248;28;20182;-69
2022/06/10 08:30:02;;;;;;;1999.90;999.90;;;23.30;99.90;;;;;;5019823;28;20254;-69
2022/06/10 08:32:28;;;;;;;1999.90;999.90;;;23.60;99.90;;;;;;5022287;28;20179;-69
2022/06/10 08:34:54;;;;;;;1999.90;999.90;;;23.40;99.90;;;;;;5032364;28;20654;-74
2022/06/10 08:37:19;;;;;;;1999.90;999.90;;;23.50;99.90;;;;;;5002809;28;20553;-74
2022/06/10 08:39:45;;;;;;;1999.90;999.90;;;24.00;99.90;;;;;;5025647;28;20233;-76
2022/06/10 08:42:42;;;;;;;1999.90;999.90;;;24.20;99.90;;;;;;5017882;28;20236;-77
2022/06/10 08:45:32;;;;;;;1999.90;999.90;;;25.10;99.90;;;;;;5017994;28;20222;-75
2022/06/10 08:48:19;;;;;;;1999.90;999.90;;;26.70;99.90;;;;;;5040857;28;20265;-68
2022/06/10 08:50:54;;;;;;;1999.90;999.90;;;27.80;99.90;;;;;;5027205;28;20636;-69
2022/06/10 08:53:41;;;;;;;1999.90;999.90;;;29.00;99.90;;;;;;5023189;28;20241;-69
2022/06/10 08:56:21;;;;;;;1999.90;999.90;;;30.00;99.90;;;;;;5022070;28;20681;-70
2022/06/10 08:58:46;;;;;;;1999.90;999.90;;;30.40;99.90;;;;;;5030233;28;20182;-69
2022/06/10 09:01:17;;;;;;;1999.90;999.90;;;29.60;99.90;;;;;;5023620;28;20560;-71
2022/06/10 09:04:16;;;;;;;1999.90;999.90;;;29.70;99.90;;;;;;5028316;28;20706;-72
2022/06/10 09:06:48;;;;;;;1999.90;999.90;;;30.50;99.90;;;;;;5042824;28;20236;-72
2022/06/10 09:09:15;;;;;;;1999.90;999.90;;;30.50;99.90;;;;;;5021793;28;20571;-71
2022/06/10 09:11:51;;;;;;;1999.90;999.90;;;30.40;99.90;;;;;;5031803;28;20244;-71
2022/06/10 09:14:21;;;;;;;1999.90;999.90;;;31.00;99.90;;;;;;5031415;28;20252;-72
2022/06/10 09:17:01;;;;;;;1999.90;999.90;;;30.40;99.90;;;;;;5015730;28;20281;-72
2022/06/10 09:19:42;;;;;;;1999.90;999.90;;;30.40;99.90;;;;;;5030381;28;20186;-70
2022/06/10 09:22:22;;;;;;;1999.90;999.90;;;29.80;99.90;;;;;;5032443;28;20673;-65
2022/06/10 09:25:00;;;;;;;1999.90;999.90;;;30.00;99.90;;;;;;5031994;28;20643;-65
2022/06/10 09:27:29;;;;;;;1999.90;999.90;;;29.70;99.90;;;;;;5031467;28;21387;-67
2022/06/10 09:29:57;;;;;;;1999.90;999.90;;;30.00;99.90;;;;;;5025138;28;20182;-67
2022/06/10 09:32:47;;;;;;;1999.90;999.90;;;29.40;99.90;;;;;;5012607;28;20223;-67
2022/06/10 09:35:24;;;;;;;1999.90;999.90;;;29.50;99.90;;;;;;5024098;28;20197;-66
2022/06/10 09:38:00;;;;;;;1999.90;999.90;;;28.30;99.90;;;;;;5031402;28;20630;-69
2022/06/10 09:40:42;;;;;;;1999.90;999.90;;;27.40;99.90;;;;;;5027252;28;20178;-68
2022/06/10 09:43:29;;;;;;;1999.90;999.90;;;26.90;99.90;;;;;;5024926;28;20527;-67
2022/06/10 09:46:29;;;;;;;1999.90;999.90;;;26.70;99.90;;;;;;5018551;28;20579;-68
2022/06/10 09:49:26;;;;;;;1999.90;999.90;;;26.60;99.90;;;;;;5029851;28;20213;-67
2022/06/10 09:52:03;;;;;;;1999.90;999.90;;;26.20;99.90;;;;;;5015631;28;20182;-67
2022/06/10 09:55:07;;;;;;;1999.90;999.90;;;26.00;99.90;;;;;;5027322;28;20263;-66
2022/06/10 09:58:03;;;;;;;1999.90;999.90;;;26.00;99.90;;;;;;5026154;28;20249;-65
2022/06/10 10:00:40;;;;;;;1999.90;999.90;;;26.00;99.90;;;;;;5032413;28;20187;-66
2022/06/10 10:03:24;;;;;;;1999.90;999.90;;;26.00;99.90;;;;;;5016265;28;20257;-66
2022/06/10 10:06:17;;;;;;;1999.90;999.90;;;26.00;99.90;;;;;;5020394;28;20212;-68
2022/06/10 10:09:21;;;;;;;1999.90;999.90;;;26.10;99.90;;;;;;5014017;28;20189;-66
2022/06/10 10:12:03;;;;;;;1999.90;999.90;;;25.80;99.90;;;;;;5021168;28;20184;-66
2022/06/10 10:15:02;;;;;;;1999.90;999.90;;;25.80;99.90;;;;;;5020757;28;20731;-66
2022/06/10 10:17:43;;;;;;;1999.90;999.90;;;25.90;99.90;;;;;;5028580;28;20178;-65
2022/06/10 10:20:09;;;;;;;1999.90;999.90;;;25.80;99.90;;;;;;5024002;28;20538;-66
2022/06/10 10:22:34;;;;;;;1999.90;999.90;;;25.80;99.90;;;;;;5025237;28;20189;-65
2022/06/10 10:25:00;;;;;;;1999.90;999.90;;;25.80;99.90;;;;;;5032826;28;20240;-66
2022/06/10 10:27:31;;;;;;;1999.90;999.90;;;25.80;99.90;;;;;;5031476;28;20182;-66
2022/06/10 10:30:05;;;;;;;1999.90;999.90;;;26.00;99.90;;;;;;5032219;28;20181;-69
2022/06/10 10:32:35;;;;;;;1999.90;999.90;;;26.00;99.90;;;;;;5015895;28;20187;-69
2022/06/10 10:35:16;;;;;;;1999.90;999.90;;;26.20;99.90;;;;;;5017043;28;20581;-71
2022/06/10 10:37:52;;;;;;;1999.90;999.90;;;26.20;99.90;;;;;;5044668;28;20273;-69
2022/06/10 10:40:20;;;;;;;1999.90;999.90;;;26.00;99.90;;;;;;5021027;28;20189;-69
2022/06/10 10:42:50;;;;;;;1999.90;999.90;;;25.90;99.90;;;;;;5041911;28;20193;-72
2022/06/10 10:45:30;;;;;;;1999.90;999.90;;;25.80;99.90;;;;;;5022967;28;20190;-74
2022/06/10 10:47:59;;;;;;;1999.90;999.90;;;25.60;99.90;;;;;;5027503;28;20264;-74
2022/06/10 10:50:35;;;;;;;1999.90;999.90;;;25.90;99.90;;;;;;5022019;28;20191;-70
2022/06/10 10:53:33;;;;;;;1999.90;999.90;;;26.00;99.90;;;;;;5024830;28;20210;-69
2022/06/10 10:56:01;;;;;;;1999.90;999.90;;;25.50;99.90;;;;;;5020930;28;20200;-69
2022/06/10 10:58:52;;;;;;;1999.90;999.90;;;25.30;99.90;;;;;;5025298;28;20174;-69
2022/06/10 11:01:50;;;;;;;1999.90;999.90;;;25.40;99.90;;;;;;5027043;28;20199;-69
2022/06/10 11:04:38;;;;;;;1999.90;999.90;;;25.60;99.90;;;;;;5036715;28;20225;-69
2022/06/10 11:07:04;;;;;;;1999.90;999.90;;;25.90;99.90;;;;;;5020488;28;20261;-69
2022/06/10 11:09:30;;;;;;;1999.90;999.90;;;25.90;99.90;;;;;;5013515;28;20701;-68
2022/06/10 11:12:01;;;;;;;1999.90;999.90;;;26.00;99.90;;;;;;5016356;28;20190;-69
2022/06/10 11:14:36;;;;;;;1999.90;999.90;;;25.90;99.90;;;;;;5024530;28;20269;-69
2022/06/10 11:17:14;;;;;;;1999.90;999.90;;;25.80;99.90;;;;;;5028780;28;20189;-72
2022/06/10 11:19:51;;;;;;;1999.90;999.90;;;26.00;99.90;;;;;;5028588;28;20261;-72
2022/06/10 11:22:21;;;;;;;1999.90;999.90;;;25.90;99.90;;;;;;5022766;28;20190;-71
2022/06/10 11:25:14;;;;;;;1999.90;999.90;;;26.10;99.90;;;;;;5026948;28;20543;-74
2022/06/10 11:27:49;;;;;;;1999.90;999.90;;;26.20;99.90;;;;;;5023210;28;20194;-71
2022/06/10 11:30:20;;;;;;;1999.90;999.90;;;26.20;99.90;;;;;;5035944;28;20241;-73
2022/06/10 11:32:48;;;;;;;1999.90;999.90;;;26.40;99.90;;;;;;5035085;28;20774;-72
2022/06/10 11:35:26;;;;;;;1999.90;999.90;;;26.40;99.90;;;;;;5023496;28;20191;-75
2022/06/10 11:38:02;;;;;;;1999.90;999.90;;;26.40;99.90;;;;;;5023971;28;20187;-71
2022/06/10 11:40:47;;;;;;;1999.90;999.90;;;26.30;99.90;;;;;;5027784;28;20540;-71
2022/06/10 11:43:25;;;;;;;1999.90;999.90;;;26.20;99.90;;;;;;5039159;28;20210;-70
2022/06/10 11:46:12;;;;;;;1999.90;999.90;;;26.10;99.90;;;;;;5030435;28;20179;-71
2022/06/10 11:48:50;;;;;;;1999.90;999.90;;;26.00;99.90;;;;;;5031627;28;20229;-72
2022/06/10 11:51:16;;;;;;;1999.90;999.90;;;25.90;99.90;;;;;;5019289;28;20183;-74
2022/06/10 11:53:48;;;;;;;1999.90;999.90;;;26.00;99.90;;;;;;5032752;28;20393;-72
2022/06/10 11:59:46;;;;;;;1999.90;999.90;;;26.00;99.90;;;;;;5027928;28;20190;-72
2022/06/10 12:02:25;;;;;;;1999.90;999.90;;;26.30;99.90;;;;;;5031682;28;20252;-72
2022/06/10 12:05:02;;;;;;;1999.90;999.90;;;26.20;99.90;;;;;;5032431;28;20194;-72
2022/06/10 12:07:32;;;;;;;1999.90;999.90;;;26.10;99.90;;;;;;5048014;28;20170;-74
2022/06/10 12:10:02;;;;;;;1999.90;999.90;;;26.20;99.90;;;;;;5031123;28;20186;-73
2022/06/10 12:12:34;;;;;;;1999.90;999.90;;;26.60;99.90;;;;;;5029633;28;20183;-73
2022/06/10 12:15:11;;;;;;;1999.90;999.90;;;27.10;99.90;;;;;;5023253;28;20175;-74
2022/06/10 12:17:43;;;;;;;1999.90;999.90;;;27.20;99.90;;;;;;5017052;28;20186;-73
2022/06/10 12:20:36;;;;;;;1999.90;999.90;;;26.80;99.90;;;;;;5021204;28;20190;-72
2022/06/10 12:23:14;;;;;;;1999.90;999.90;;;26.60;99.90;;;;;;5026843;28;20183;-72
2022/06/10 12:26:06;;;;;;;1999.90;999.90;;;26.40;99.90;;;;;;5032681;28;20259;-72
2022/06/10 12:28:40;;;;;;;1999.90;999.90;;;26.30;99.90;;;;;;5033160;28;20217;-72
2022/06/10 12:31:31;;;;;;;1999.90;999.90;;;26.50;99.90;;;;;;5014764;28;20186;-72
2022/06/10 12:34:13;;;;;;;1999.90;999.90;;;26.60;99.90;;;;;;5017971;28;20238;-73
2022/06/10 12:36:47;;;;;;;1999.90;999.90;;;26.70;99.90;;;;;;5024933;28;20197;-74
2022/06/10 12:39:25;;;;;;;1999.90;999.90;;;26.90;99.90;;;;;;5031868;28;20267;-73